createdAt,value
2023-04-15T04:02:13.879Z,97.50
2023-04-15T04:06:26.297Z,97.44
2023-04-15T04:10:37.774Z,98.25
2023-04-15T04:14:49.207Z,98.08
2023-04-15T04:19:01.131Z,98.35
2023-04-15T04:23:12.773Z,98.40
2023-04-15T04:27:24.184Z,98.46
2023-04-15T04:31:35.681Z,98.52
2023-04-15T04:35:47.150Z,98.45
2023-04-15T04:39:58.595Z,98.30
2023-04-15T04:44:10.115Z,98.43
2023-04-15T04:48:21.650Z,98.44
2023-04-15T04:52:33.172Z,98.99
2023-04-15T04:56:44.608Z,98.46
2023-04-15T05:00:56.687Z,98.00
2023-04-15T05:05:08.643Z,97.86
2023-04-15T05:09:20.172Z,97.78
2023-04-15T05:13:31.670Z,97.74
2023-04-15T05:17:43.171Z,97.01
2023-04-15T05:21:54.690Z,97.44
2023-04-15T05:26:06.149Z,97.83
2023-04-15T05:30:17.671Z,96.48
2023-04-15T05:34:29.129Z,96.85
2023-04-15T05:38:40.952Z,97.90
2023-04-15T05:42:52.392Z,98.52
2023-04-15T05:47:03.849Z,93.30
2023-04-15T05:51:15.512Z,93.71
2023-04-15T05:55:27.368Z,93.27
2023-04-15T05:59:38.905Z,92.16
2023-04-15T06:03:51.216Z,91.64
2023-04-15T06:08:03.038Z,91.64
2023-04-15T06:12:14.509Z,91.20
2023-04-15T06:16:26.231Z,91.99
2023-04-15T06:20:38.426Z,91.44
2023-04-15T06:24:53.244Z,90.56
2023-04-15T06:29:04.684Z,83.63
2023-04-15T06:33:16.493Z,62.38
2023-04-15T06:37:28.032Z,52.45
2023-04-15T06:41:39.679Z,43.57
2023-04-15T06:45:51.630Z,42.31
2023-04-15T06:50:03.927Z,40.69
2023-04-15T06:54:15.441Z,40.54
2023-04-15T06:58:26.933Z,44.65
2023-04-15T07:02:38.684Z,49.20
2023-04-15T07:06:50.642Z,51.28
2023-04-15T07:11:02.448Z,51.91
2023-04-15T07:15:13.961Z,53.11
2023-04-15T07:19:25.447Z,52.89
2023-04-15T07:23:36.933Z,54.55
2023-04-15T07:27:48.539Z,55.47
2023-04-15T07:32:00.035Z,55.47
2023-04-15T07:36:11.587Z,56.67
2023-04-15T07:40:23.054Z,58.08
2023-04-15T07:44:34.573Z,57.69
2023-04-15T07:48:46.426Z,58.07
2023-04-15T07:52:58.028Z,57.95
2023-04-15T07:57:09.535Z,57.33
2023-04-15T08:01:21.028Z,56.49
2023-04-15T08:05:33.037Z,56.26
2023-04-15T08:09:44.545Z,57.04
2023-04-15T08:13:56.096Z,56.39
2023-04-15T08:18:07.620Z,55.81
2023-04-15T08:22:20.554Z,55.33
2023-04-15T08:26:32.782Z,56.43
2023-04-15T08:30:44.248Z,55.76
2023-04-15T08:34:55.769Z,57.27
2023-04-15T08:39:07.749Z,57.35
2023-04-15T08:43:27.880Z,55.86
2023-04-15T08:47:40.510Z,57.65
2023-04-15T08:51:52.382Z,57.04
2023-04-15T08:56:07.436Z,56.82
2023-04-15T09:00:19.332Z,54.56
2023-04-15T09:04:31.386Z,55.55
2023-04-15T09:08:42.877Z,54.49
2023-04-15T09:12:54.921Z,52.79
2023-04-15T09:17:10.378Z,53.34
2023-04-15T09:21:23.500Z,52.55
2023-04-15T09:25:35.244Z,50.27
2023-04-15T09:29:51.489Z,50.78
2023-04-15T09:34:03.336Z,50.46
2023-04-15T09:38:15.041Z,48.08
2023-04-15T09:42:27.356Z,47.13
2023-04-15T09:46:45.587Z,45.25
2023-04-15T09:51:01.799Z,42.79
2023-04-15T09:55:16.031Z,41.11
2023-04-15T09:59:27.578Z,42.87
2023-04-15T10:03:42.227Z,39.42
2023-04-15T10:07:54.127Z,40.57
2023-04-15T10:12:05.784Z,41.94
2023-04-15T10:16:20.782Z,37.73
2023-04-15T10:20:32.681Z,36.10
2023-04-15T10:24:45.306Z,35.70
2023-04-15T10:28:59.019Z,36.71
2023-04-15T10:33:12.614Z,36.60
2023-04-15T10:37:36.185Z,36.16
2023-04-15T10:42:07.142Z,36.44
2023-04-15T10:46:21.604Z,35.61
2023-04-15T10:50:33.299Z,36.02
2023-04-15T10:54:45.523Z,36.08
2023-04-15T10:58:59.630Z,36.73
2023-04-15T11:03:12.098Z,36.51
2023-04-15T11:08:02.508Z,38.24
2023-04-15T11:12:13.983Z,38.68
2023-04-15T11:16:25.540Z,39.74
2023-04-15T11:20:38.994Z,40.12
2023-04-15T11:24:50.521Z,38.86
2023-04-15T11:29:02.275Z,38.12
2023-04-15T11:33:14.009Z,37.64
2023-04-15T11:37:30.255Z,38.04
2023-04-15T11:41:43.243Z,37.97
2023-04-15T11:45:59.109Z,36.85
2023-04-15T11:50:28.763Z,36.40
2023-04-15T11:54:40.252Z,37.13
2023-04-15T11:58:57.231Z,36.22
2023-04-15T12:03:29.464Z,36.26
2023-04-15T12:08:00.700Z,37.15
2023-04-15T12:12:12.708Z,38.84
2023-04-15T12:16:25.248Z,36.69
2023-04-15T12:20:44.499Z,35.96
2023-04-15T12:24:57.356Z,36.26
2023-04-15T12:29:09.148Z,37.55
2023-04-15T12:33:21.183Z,37.15
2023-04-15T12:37:32.683Z,37.57
2023-04-15T12:41:44.203Z,37.86
2023-04-15T12:45:55.774Z,36.90
2023-04-15T12:50:07.742Z,36.84
2023-04-15T12:54:19.690Z,36.50
2023-04-15T12:58:31.465Z,35.32
2023-04-15T13:02:44.168Z,34.99
2023-04-15T13:06:56.225Z,34.18
2023-04-15T13:11:07.787Z,33.53
2023-04-15T13:21:16.140Z,36.93
2023-04-15T13:25:27.908Z,36.82
2023-04-15T13:29:40.226Z,36.46
2023-04-15T13:33:51.755Z,36.95
2023-04-15T13:38:03.296Z,37.35
2023-04-15T13:42:14.821Z,36.95
2023-04-15T13:46:26.431Z,37.48
2023-04-15T13:50:39.108Z,36.51
2023-04-15T13:55:18.381Z,35.76
2023-04-15T13:59:23.764Z,35.87
2023-04-15T14:03:36.558Z,36.24
2023-04-15T14:07:48.570Z,37.14
2023-04-15T14:12:01.298Z,38.59
2023-04-15T14:16:12.860Z,38.21
2023-04-15T14:20:24.492Z,37.64
2023-04-15T14:24:36.039Z,37.49
2023-04-15T14:28:48.352Z,37.04
2023-04-15T14:33:00.129Z,35.96
2023-04-15T14:37:11.749Z,34.79
2023-04-15T14:41:23.405Z,35.18
2023-04-15T14:45:35.117Z,35.03
2023-04-15T14:49:46.704Z,35.17
2023-04-15T14:53:58.416Z,36.13
2023-04-15T14:58:09.964Z,36.72
2023-04-15T15:06:37.962Z,37.68
2023-04-15T15:10:50.014Z,38.29
2023-04-15T15:15:06.922Z,38.06
2023-04-15T15:19:24.943Z,39.21
2023-04-15T15:23:36.840Z,39.49
2023-04-15T15:27:48.951Z,40.83
2023-04-15T15:32:00.545Z,40.61
2023-04-15T15:36:12.254Z,41.21
2023-04-15T15:40:23.932Z,41.59
2023-04-15T15:44:38.282Z,41.59
2023-04-15T15:48:49.890Z,42.26
2023-04-15T15:53:01.418Z,43.02
2023-04-15T15:57:13.008Z,42.99
2023-04-15T16:01:24.575Z,43.42
2023-04-15T16:05:37.680Z,44.16
2023-04-15T16:09:49.168Z,45.64
2023-04-15T16:14:00.705Z,46.08
2023-04-15T16:18:12.219Z,46.42
2023-04-15T16:22:26.182Z,47.17
2023-04-15T16:26:37.689Z,47.39
2023-04-15T16:30:49.207Z,48.76
2023-04-15T16:35:00.805Z,49.06
2023-04-15T16:39:12.562Z,50.04
2023-04-15T16:43:24.755Z,51.45
2023-04-15T16:47:36.389Z,51.86
2023-04-15T16:51:47.940Z,53.41
2023-04-15T16:55:59.485Z,53.58
2023-04-15T17:00:11.479Z,53.59
2023-04-15T17:04:23.245Z,54.55
2023-04-15T17:08:34.868Z,54.99
2023-04-15T17:12:46.399Z,54.51
2023-04-15T17:16:57.945Z,54.76
2023-04-15T17:21:09.516Z,55.91
2023-04-15T17:25:21.207Z,55.85
2023-04-15T17:29:33.017Z,56.54
2023-04-15T17:34:01.081Z,57.41
2023-04-15T17:38:16.632Z,58.42
2023-04-15T17:42:28.182Z,58.38
2023-04-15T17:46:39.774Z,58.66
2023-04-15T17:50:51.948Z,59.72
2023-04-15T17:55:03.748Z,61.59
2023-04-15T17:59:16.223Z,61.87
2023-04-15T18:03:27.806Z,62.83
2023-04-15T18:07:39.565Z,63.17
2023-04-15T18:11:51.254Z,63.79
2023-04-15T18:16:02.779Z,64.03
2023-04-15T18:20:14.400Z,64.73
2023-04-15T18:24:25.929Z,65.22
2023-04-15T18:28:40.422Z,65.94
2023-04-15T18:32:52.113Z,67.02
2023-04-15T18:37:05.238Z,67.67
2023-04-15T18:41:16.909Z,67.50
2023-04-15T18:45:30.120Z,67.95
2023-04-15T18:49:41.750Z,69.04
2023-04-15T18:53:53.380Z,68.10
2023-04-15T18:58:06.466Z,69.04
2023-04-15T19:02:20.693Z,69.55
2023-04-15T19:06:32.370Z,68.83
2023-04-15T19:10:43.987Z,69.44
2023-04-15T19:14:55.574Z,69.87
2023-04-15T19:19:07.293Z,70.19
2023-04-15T19:23:19.078Z,70.25
2023-04-15T19:27:30.650Z,70.18
2023-04-15T19:31:42.133Z,71.77
2023-04-15T19:35:53.637Z,74.30
2023-04-15T19:40:05.997Z,75.13
2023-04-15T19:44:17.528Z,76.02
2023-04-15T19:48:29.080Z,76.54
2023-04-15T19:52:40.612Z,77.75
2023-04-15T19:56:52.145Z,77.17
2023-04-15T20:01:03.695Z,77.07
2023-04-15T20:05:15.364Z,76.87
2023-04-15T20:09:26.890Z,76.55
2023-04-15T20:13:38.420Z,76.63
2023-04-15T20:17:50.283Z,77.29
2023-04-15T20:22:01.820Z,76.41
2023-04-15T20:26:13.379Z,76.78
2023-04-15T20:30:25.360Z,77.07
2023-04-15T20:34:40.006Z,78.49
2023-04-15T20:38:51.584Z,79.16
2023-04-15T20:43:03.129Z,79.06
2023-04-15T20:47:14.675Z,81.08
2023-04-15T20:51:27.382Z,81.62
2023-04-15T20:55:38.893Z,82.12
2023-04-15T20:59:50.599Z,81.94
2023-04-15T21:04:02.275Z,83.18
2023-04-15T21:08:13.927Z,83.32
2023-04-15T21:12:25.459Z,85.49
2023-04-15T21:16:37.040Z,87.52
2023-04-15T21:21:01.382Z,87.85
2023-04-15T21:25:13.026Z,88.05
2023-04-15T21:29:24.553Z,88.61
